sensor_id;sensor_type;location;lat;lon;timestamp;P1;durP1;ratioP1;P2;durP2;ratioP2
20056;SDS011;10189;49.546;7.906;2023-06-22T00:02:20;11.85;;;10.75;;
20056;SDS011;10189;49.546;7.906;2023-06-22T00:04:47;12.00;;;10.85;;
20056;SDS011;10189;49.546;7.906;2023-06-22T00:07:13;12.50;;;11.30;;
20056;SDS011;10189;49.546;7.906;2023-06-22T00:09:38;11.85;;;10.02;;
20056;SDS011;10189;49.546;7.906;2023-06-22T00:12:04;11.50;;;10.38;;
20056;SDS011;10189;49.546;7.906;2023-06-22T00:14:31;13.43;;;10.35;;
20056;SDS011;10189;49.546;7.906;2023-06-22T00:16:56;11.43;;;10.32;;
20056;SDS011;10189;49.546;7.906;2023-06-22T00:19:24;11.52;;;10.43;;
20056;SDS011;10189;49.546;7.906;2023-06-22T00:21:50;12.43;;;10.90;;
20056;SDS011;10189;49.546;7.906;2023-06-22T00:24:19;10.77;;;9.85;;
20056;SDS011;10189;49.546;7.906;2023-06-22T00:26:47;12.23;;;10.50;;
20056;SDS011;10189;49.546;7.906;2023-06-22T00:29:15;11.02;;;10.00;;
20056;SDS011;10189;49.546;7.906;2023-06-22T00:31:41;12.07;;;10.88;;
20056;SDS011;10189;49.546;7.906;2023-06-22T00:34:07;11.95;;;10.68;;
20056;SDS011;10189;49.546;7.906;2023-06-22T00:36:33;12.60;;;11.30;;
20056;SDS011;10189;49.546;7.906;2023-06-22T00:39:02;13.00;;;10.60;;
20056;SDS011;10189;49.546;7.906;2023-06-22T00:41:29;11.55;;;10.23;;
20056;SDS011;10189;49.546;7.906;2023-06-22T00:43:56;11.30;;;10.20;;
20056;SDS011;10189;49.546;7.906;2023-06-22T00:46:22;11.68;;;10.13;;
20056;SDS011;10189;49.546;7.906;2023-06-22T00:48:50;12.23;;;11.02;;
20056;SDS011;10189;49.546;7.906;2023-06-22T00:51:17;13.60;;;12.30;;
20056;SDS011;10189;49.546;7.906;2023-06-22T00:53:49;12.85;;;11.55;;
20056;SDS011;10189;49.546;7.906;2023-06-22T00:56:18;13.32;;;11.90;;
20056;SDS011;10189;49.546;7.906;2023-06-22T00:58:45;13.27;;;11.98;;
20056;SDS011;10189;49.546;7.906;2023-06-22T01:01:12;13.35;;;12.05;;
20056;SDS011;10189;49.546;7.906;2023-06-22T01:03:39;13.50;;;12.15;;
20056;SDS011;10189;49.546;7.906;2023-06-22T01:06:07;14.40;;;12.80;;
20056;SDS011;10189;49.546;7.906;2023-06-22T01:08:50;15.02;;;12.55;;
20056;SDS011;10189;49.546;7.906;2023-06-22T01:11:41;16.63;;;13.63;;
20056;SDS011;10189;49.546;7.906;2023-06-22T01:14:15;13.57;;;12.18;;
20056;SDS011;10189;49.546;7.906;2023-06-22T01:16:55;14.20;;;12.65;;
20056;SDS011;10189;49.546;7.906;2023-06-22T01:22:12;14.13;;;12.73;;
20056;SDS011;10189;49.546;7.906;2023-06-22T01:24:46;15.43;;;13.70;;
20056;SDS011;10189;49.546;7.906;2023-06-22T01:30:07;14.15;;;12.70;;
20056;SDS011;10189;49.546;7.906;2023-06-22T01:32:36;14.88;;;13.30;;
20056;SDS011;10189;49.546;7.906;2023-06-22T01:35:06;14.43;;;13.05;;
20056;SDS011;10189;49.546;7.906;2023-06-22T01:37:34;13.75;;;12.35;;
20056;SDS011;10189;49.546;7.906;2023-06-22T01:40:03;15.90;;;13.48;;
20056;SDS011;10189;49.546;7.906;2023-06-22T01:42:34;15.80;;;14.18;;
20056;SDS011;10189;49.546;7.906;2023-06-22T01:45:02;15.65;;;13.98;;
20056;SDS011;10189;49.546;7.906;2023-06-22T01:47:29;15.32;;;13.80;;
20056;SDS011;10189;49.546;7.906;2023-06-22T01:49:56;14.10;;;12.77;;
20056;SDS011;10189;49.546;7.906;2023-06-22T01:52:23;17.35;;;14.30;;
20056;SDS011;10189;49.546;7.906;2023-06-22T01:54:48;15.65;;;14.18;;
20056;SDS011;10189;49.546;7.906;2023-06-22T01:57:14;14.50;;;13.05;;
20056;SDS011;10189;49.546;7.906;2023-06-22T02:02:49;14.50;;;13.00;;
20056;SDS011;10189;49.546;7.906;2023-06-22T02:05:23;14.68;;;13.27;;
20056;SDS011;10189;49.546;7.906;2023-06-22T02:08:07;15.43;;;13.93;;
20056;SDS011;10189;49.546;7.906;2023-06-22T02:10:37;14.80;;;13.40;;
20056;SDS011;10189;49.546;7.906;2023-06-22T02:13:06;14.95;;;13.05;;
20056;SDS011;10189;49.546;7.906;2023-06-22T02:15:34;13.68;;;12.48;;
20056;SDS011;10189;49.546;7.906;2023-06-22T02:18:01;14.80;;;13.40;;
20056;SDS011;10189;49.546;7.906;2023-06-22T02:20:27;14.68;;;13.10;;
20056;SDS011;10189;49.546;7.906;2023-06-22T02:22:53;14.35;;;12.82;;
20056;SDS011;10189;49.546;7.906;2023-06-22T02:25:19;15.65;;;14.13;;
20056;SDS011;10189;49.546;7.906;2023-06-22T02:27:45;15.15;;;13.75;;
20056;SDS011;10189;49.546;7.906;2023-06-22T02:30:11;14.95;;;13.45;;
20056;SDS011;10189;49.546;7.906;2023-06-22T02:32:41;14.65;;;13.15;;
20056;SDS011;10189;49.546;7.906;2023-06-22T02:35:10;12.57;;;11.38;;
20056;SDS011;10189;49.546;7.906;2023-06-22T02:37:37;13.50;;;12.10;;
20056;SDS011;10189;49.546;7.906;2023-06-22T02:40:06;13.50;;;12.00;;
20056;SDS011;10189;49.546;7.906;2023-06-22T02:42:36;14.23;;;12.70;;
20056;SDS011;10189;49.546;7.906;2023-06-22T02:45:04;14.10;;;12.70;;
20056;SDS011;10189;49.546;7.906;2023-06-22T02:47:31;16.60;;;13.90;;
20056;SDS011;10189;49.546;7.906;2023-06-22T02:49:57;14.23;;;12.80;;
20056;SDS011;10189;49.546;7.906;2023-06-22T02:52:24;14.60;;;13.13;;
20056;SDS011;10189;49.546;7.906;2023-06-22T02:54:50;14.65;;;13.10;;
20056;SDS011;10189;49.546;7.906;2023-06-22T02:57:15;15.15;;;13.70;;
20056;SDS011;10189;49.546;7.906;2023-06-22T02:59:42;14.52;;;13.13;;
20056;SDS011;10189;49.546;7.906;2023-06-22T03:02:10;14.57;;;13.02;;
20056;SDS011;10189;49.546;7.906;2023-06-22T03:04:37;14.63;;;13.07;;
20056;SDS011;10189;49.546;7.906;2023-06-22T03:07:03;14.02;;;12.65;;
20056;SDS011;10189;49.546;7.906;2023-06-22T03:09:31;12.80;;;11.50;;
20056;SDS011;10189;49.546;7.906;2023-06-22T03:11:57;14.85;;;12.60;;
20056;SDS011;10189;49.546;7.906;2023-06-22T03:14:27;14.38;;;12.90;;
20056;SDS011;10189;49.546;7.906;2023-06-22T03:16:53;14.88;;;13.15;;
20056;SDS011;10189;49.546;7.906;2023-06-22T03:19:19;13.90;;;12.38;;
20056;SDS011;10189;49.546;7.906;2023-06-22T03:21:47;14.80;;;13.25;;
20056;SDS011;10189;49.546;7.906;2023-06-22T03:24:13;15.27;;;13.77;;
20056;SDS011;10189;49.546;7.906;2023-06-22T03:26:38;15.60;;;14.00;;
20056;SDS011;10189;49.546;7.906;2023-06-22T03:29:04;16.55;;;14.63;;
20056;SDS011;10189;49.546;7.906;2023-06-22T03:31:32;17.35;;;15.00;;
20056;SDS011;10189;49.546;7.906;2023-06-22T03:33:58;16.50;;;14.70;;
20056;SDS011;10189;49.546;7.906;2023-06-22T03:36:24;17.45;;;15.65;;
20056;SDS011;10189;49.546;7.906;2023-06-22T03:38:51;17.92;;;16.13;;
20056;SDS011;10189;49.546;7.906;2023-06-22T03:41:17;18.77;;;16.77;;
20056;SDS011;10189;49.546;7.906;2023-06-22T03:43:43;19.60;;;17.55;;
20056;SDS011;10189;49.546;7.906;2023-06-22T03:46:09;18.85;;;16.85;;
20056;SDS011;10189;49.546;7.906;2023-06-22T03:48:35;18.40;;;16.50;;
20056;SDS011;10189;49.546;7.906;2023-06-22T03:51:01;18.73;;;16.95;;
20056;SDS011;10189;49.546;7.906;2023-06-22T03:53:30;19.52;;;17.58;;
20056;SDS011;10189;49.546;7.906;2023-06-22T03:55:56;19.88;;;17.77;;
20056;SDS011;10189;49.546;7.906;2023-06-22T03:58:22;21.10;;;19.00;;
20056;SDS011;10189;49.546;7.906;2023-06-22T04:00:49;27.63;;;19.10;;
20056;SDS011;10189;49.546;7.906;2023-06-22T04:03:17;20.88;;;18.67;;
20056;SDS011;10189;49.546;7.906;2023-06-22T04:05:44;22.02;;;19.75;;
20056;SDS011;10189;49.546;7.906;2023-06-22T04:08:11;22.13;;;19.90;;
20056;SDS011;10189;49.546;7.906;2023-06-22T04:10:40;20.83;;;18.58;;
20056;SDS011;10189;49.546;7.906;2023-06-22T04:13:06;21.30;;;18.92;;
20056;SDS011;10189;49.546;7.906;2023-06-22T04:15:32;22.70;;;20.40;;
20056;SDS011;10189;49.546;7.906;2023-06-22T04:17:58;19.77;;;17.77;;
20056;SDS011;10189;49.546;7.906;2023-06-22T04:20:24;20.98;;;18.58;;
20056;SDS011;10189;49.546;7.906;2023-06-22T04:22:54;19.73;;;17.65;;
20056;SDS011;10189;49.546;7.906;2023-06-22T04:25:20;20.90;;;18.25;;
20056;SDS011;10189;49.546;7.906;2023-06-22T04:27:47;27.10;;;21.63;;
20056;SDS011;10189;49.546;7.906;2023-06-22T04:30:13;22.80;;;19.63;;
20056;SDS011;10189;49.546;7.906;2023-06-22T04:32:41;21.35;;;19.05;;
20056;SDS011;10189;49.546;7.906;2023-06-22T04:35:08;20.00;;;17.90;;
20056;SDS011;10189;49.546;7.906;2023-06-22T04:37:35;22.17;;;19.65;;
20056;SDS011;10189;49.546;7.906;2023-06-22T04:40:01;21.77;;;19.58;;
20056;SDS011;10189;49.546;7.906;2023-06-22T04:42:29;22.23;;;19.77;;
20056;SDS011;10189;49.546;7.906;2023-06-22T04:44:57;21.80;;;19.50;;
20056;SDS011;10189;49.546;7.906;2023-06-22T04:47:22;22.48;;;19.85;;
20056;SDS011;10189;49.546;7.906;2023-06-22T04:49:48;21.42;;;18.98;;
20056;SDS011;10189;49.546;7.906;2023-06-22T04:52:15;21.38;;;19.27;;
20056;SDS011;10189;49.546;7.906;2023-06-22T04:54:42;20.77;;;18.67;;
20056;SDS011;10189;49.546;7.906;2023-06-22T04:57:15;22.85;;;19.30;;
20056;SDS011;10189;49.546;7.906;2023-06-22T04:59:41;21.70;;;19.27;;
20056;SDS011;10189;49.546;7.906;2023-06-22T05:02:08;21.13;;;18.90;;
20056;SDS011;10189;49.546;7.906;2023-06-22T05:04:34;20.75;;;18.55;;
20056;SDS011;10189;49.546;7.906;2023-06-22T05:07:09;22.83;;;20.45;;
20056;SDS011;10189;49.546;7.906;2023-06-22T05:09:35;23.27;;;20.30;;
20056;SDS011;10189;49.546;7.906;2023-06-22T05:12:01;21.92;;;19.48;;
20056;SDS011;10189;49.546;7.906;2023-06-22T05:14:29;23.73;;;19.80;;
20056;SDS011;10189;49.546;7.906;2023-06-22T05:16:55;21.88;;;19.52;;
20056;SDS011;10189;49.546;7.906;2023-06-22T05:19:23;22.73;;;20.15;;
20056;SDS011;10189;49.546;7.906;2023-06-22T05:21:56;21.70;;;19.30;;
20056;SDS011;10189;49.546;7.906;2023-06-22T05:24:22;23.90;;;18.95;;
20056;SDS011;10189;49.546;7.906;2023-06-22T05:26:48;25.38;;;20.08;;
20056;SDS011;10189;49.546;7.906;2023-06-22T05:29:13;22.30;;;19.75;;
20056;SDS011;10189;49.546;7.906;2023-06-22T05:31:40;23.52;;;20.30;;
20056;SDS011;10189;49.546;7.906;2023-06-22T05:34:06;23.13;;;20.23;;
20056;SDS011;10189;49.546;7.906;2023-06-22T05:36:32;23.33;;;18.90;;
20056;SDS011;10189;49.546;7.906;2023-06-22T05:38:58;22.70;;;20.38;;
20056;SDS011;10189;49.546;7.906;2023-06-22T05:41:24;25.27;;;21.10;;
20056;SDS011;10189;49.546;7.906;2023-06-22T05:43:50;22.88;;;20.27;;
20056;SDS011;10189;49.546;7.906;2023-06-22T05:46:16;21.85;;;19.60;;
20056;SDS011;10189;49.546;7.906;2023-06-22T05:48:44;23.83;;;20.67;;
20056;SDS011;10189;49.546;7.906;2023-06-22T05:51:10;21.80;;;19.67;;
20056;SDS011;10189;49.546;7.906;2023-06-22T05:53:36;21.35;;;19.00;;
20056;SDS011;10189;49.546;7.906;2023-06-22T05:56:02;23.50;;;19.45;;
20056;SDS011;10189;49.546;7.906;2023-06-22T05:58:29;20.90;;;18.70;;
20056;SDS011;10189;49.546;7.906;2023-06-22T06:00:55;22.40;;;18.70;;
20056;SDS011;10189;49.546;7.906;2023-06-22T06:03:20;22.85;;;18.50;;
20056;SDS011;10189;49.546;7.906;2023-06-22T06:05:46;18.23;;;16.25;;
20056;SDS011;10189;49.546;7.906;2023-06-22T06:08:12;20.15;;;17.40;;
20056;SDS011;10189;49.546;7.906;2023-06-22T06:10:38;20.30;;;16.88;;
20056;SDS011;10189;49.546;7.906;2023-06-22T06:13:04;18.20;;;16.30;;
20056;SDS011;10189;49.546;7.906;2023-06-22T06:15:31;19.73;;;17.25;;
20056;SDS011;10189;49.546;7.906;2023-06-22T06:17:57;19.65;;;15.90;;
20056;SDS011;10189;49.546;7.906;2023-06-22T06:20:25;19.75;;;16.80;;
20056;SDS011;10189;49.546;7.906;2023-06-22T06:25:21;17.50;;;15.50;;
20056;SDS011;10189;49.546;7.906;2023-06-22T06:27:48;18.48;;;16.58;;
20056;SDS011;10189;49.546;7.906;2023-06-22T06:30:16;20.30;;;15.60;;
20056;SDS011;10189;49.546;7.906;2023-06-22T06:32:44;19.05;;;15.32;;
20056;SDS011;10189;49.546;7.906;2023-06-22T06:35:12;17.42;;;15.63;;
20056;SDS011;10189;49.546;7.906;2023-06-22T06:37:41;17.13;;;15.20;;
20056;SDS011;10189;49.546;7.906;2023-06-22T06:40:09;16.73;;;15.02;;
20056;SDS011;10189;49.546;7.906;2023-06-22T06:42:38;17.02;;;15.25;;
20056;SDS011;10189;49.546;7.906;2023-06-22T06:45:12;17.70;;;15.38;;
20056;SDS011;10189;49.546;7.906;2023-06-22T06:47:50;17.67;;;15.77;;
20056;SDS011;10189;49.546;7.906;2023-06-22T06:50:18;17.88;;;16.08;;
20056;SDS011;10189;49.546;7.906;2023-06-22T06:52:44;17.55;;;15.20;;
20056;SDS011;10189;49.546;7.906;2023-06-22T06:55:10;16.95;;;14.55;;
20056;SDS011;10189;49.546;7.906;2023-06-22T06:57:37;18.20;;;14.88;;
20056;SDS011;10189;49.546;7.906;2023-06-22T07:00:08;16.63;;;15.02;;
20056;SDS011;10189;49.546;7.906;2023-06-22T07:02:38;16.08;;;14.40;;
20056;SDS011;10189;49.546;7.906;2023-06-22T07:05:06;15.38;;;13.80;;
20056;SDS011;10189;49.546;7.906;2023-06-22T07:07:33;16.17;;;14.02;;
20056;SDS011;10189;49.546;7.906;2023-06-22T07:09:59;14.82;;;13.35;;
20056;SDS011;10189;49.546;7.906;2023-06-22T07:12:25;14.88;;;13.20;;
20056;SDS011;10189;49.546;7.906;2023-06-22T07:14:52;13.55;;;12.18;;
20056;SDS011;10189;49.546;7.906;2023-06-22T07:17:18;13.98;;;12.45;;
20056;SDS011;10189;49.546;7.906;2023-06-22T07:19:45;13.82;;;12.40;;
20056;SDS011;10189;49.546;7.906;2023-06-22T07:22:11;13.75;;;12.35;;
20056;SDS011;10189;49.546;7.906;2023-06-22T07:24:37;12.57;;;11.27;;
20056;SDS011;10189;49.546;7.906;2023-06-22T07:27:03;13.38;;;11.30;;
20056;SDS011;10189;49.546;7.906;2023-06-22T07:29:31;12.90;;;11.60;;
20056;SDS011;10189;49.546;7.906;2023-06-22T07:31:58;12.18;;;11.00;;
20056;SDS011;10189;49.546;7.906;2023-06-22T07:34:25;12.05;;;10.95;;
20056;SDS011;10189;49.546;7.906;2023-06-22T07:36:51;11.05;;;9.93;;
20056;SDS011;10189;49.546;7.906;2023-06-22T07:39:17;11.60;;;10.52;;
20056;SDS011;10189;49.546;7.906;2023-06-22T07:41:43;11.02;;;9.55;;
20056;SDS011;10189;49.546;7.906;2023-06-22T07:44:09;11.30;;;10.20;;
20056;SDS011;10189;49.546;7.906;2023-06-22T07:46:35;11.80;;;9.98;;
20056;SDS011;10189;49.546;7.906;2023-06-22T07:49:01;10.80;;;9.80;;
20056;SDS011;10189;49.546;7.906;2023-06-22T07:51:27;10.30;;;9.40;;
20056;SDS011;10189;49.546;7.906;2023-06-22T07:53:53;10.18;;;9.15;;
20056;SDS011;10189;49.546;7.906;2023-06-22T07:56:19;10.23;;;9.15;;
20056;SDS011;10189;49.546;7.906;2023-06-22T07:58:46;10.57;;;9.50;;
20056;SDS011;10189;49.546;7.906;2023-06-22T08:01:13;11.25;;;9.35;;
20056;SDS011;10189;49.546;7.906;2023-06-22T08:03:40;11.23;;;10.18;;
20056;SDS011;10189;49.546;7.906;2023-06-22T08:06:06;12.65;;;9.55;;
20056;SDS011;10189;49.546;7.906;2023-06-22T08:08:34;12.00;;;9.52;;
20056;SDS011;10189;49.546;7.906;2023-06-22T08:11:01;10.75;;;9.65;;
20056;SDS011;10189;49.546;7.906;2023-06-22T08:13:27;10.30;;;9.30;;
20056;SDS011;10189;49.546;7.906;2023-06-22T08:15:53;10.85;;;9.57;;
20056;SDS011;10189;49.546;7.906;2023-06-22T08:18:19;11.85;;;10.15;;
20056;SDS011;10189;49.546;7.906;2023-06-22T08:20:45;10.93;;;9.88;;
20056;SDS011;10189;49.546;7.906;2023-06-22T08:23:11;12.15;;;10.30;;
20056;SDS011;10189;49.546;7.906;2023-06-22T08:25:37;11.27;;;10.20;;
20056;SDS011;10189;49.546;7.906;2023-06-22T08:28:03;11.15;;;10.15;;
20056;SDS011;10189;49.546;7.906;2023-06-22T08:30:30;10.48;;;9.38;;
20056;SDS011;10189;49.546;7.906;2023-06-22T08:32:56;11.23;;;10.23;;
20056;SDS011;10189;49.546;7.906;2023-06-22T08:35:22;12.30;;;11.05;;
20056;SDS011;10189;49.546;7.906;2023-06-22T08:37:48;12.38;;;9.52;;
20056;SDS011;10189;49.546;7.906;2023-06-22T08:40:19;11.50;;;10.05;;
20056;SDS011;10189;49.546;7.906;2023-06-22T08:42:46;10.30;;;9.30;;
20056;SDS011;10189;49.546;7.906;2023-06-22T08:45:13;11.23;;;9.90;;
20056;SDS011;10189;49.546;7.906;2023-06-22T08:47:40;12.63;;;10.73;;
20056;SDS011;10189;49.546;7.906;2023-06-22T08:50:07;15.88;;;11.38;;
20056;SDS011;10189;49.546;7.906;2023-06-22T08:52:34;13.93;;;11.15;;
20056;SDS011;10189;49.546;7.906;2023-06-22T08:55:02;12.65;;;11.38;;
20056;SDS011;10189;49.546;7.906;2023-06-22T08:57:29;13.60;;;11.13;;
20056;SDS011;10189;49.546;7.906;2023-06-22T08:59:58;12.40;;;11.10;;
20056;SDS011;10189;49.546;7.906;2023-06-22T09:02:25;12.88;;;11.52;;
20056;SDS011;10189;49.546;7.906;2023-06-22T09:07:22;16.88;;;11.77;;
20056;SDS011;10189;49.546;7.906;2023-06-22T09:09:50;17.10;;;11.50;;
20056;SDS011;10189;49.546;7.906;2023-06-22T09:12:17;12.52;;;11.13;;
20056;SDS011;10189;49.546;7.906;2023-06-22T09:14:45;14.43;;;11.60;;
20056;SDS011;10189;49.546;7.906;2023-06-22T09:17:12;13.00;;;11.70;;
20056;SDS011;10189;49.546;7.906;2023-06-22T09:19:38;12.73;;;11.30;;
20056;SDS011;10189;49.546;7.906;2023-06-22T09:22:04;12.88;;;11.57;;
20056;SDS011;10189;49.546;7.906;2023-06-22T09:24:33;13.68;;;11.80;;
20056;SDS011;10189;49.546;7.906;2023-06-22T09:26:59;12.82;;;11.20;;
20056;SDS011;10189;49.546;7.906;2023-06-22T09:29:25;13.48;;;11.57;;
20056;SDS011;10189;49.546;7.906;2023-06-22T09:31:51;13.85;;;12.07;;
20056;SDS011;10189;49.546;7.906;2023-06-22T09:34:21;13.45;;;11.57;;
20056;SDS011;10189;49.546;7.906;2023-06-22T09:36:47;12.55;;;11.25;;
20056;SDS011;10189;49.546;7.906;2023-06-22T09:39:12;12.15;;;10.85;;
20056;SDS011;10189;49.546;7.906;2023-06-22T09:41:39;13.27;;;11.35;;
20056;SDS011;10189;49.546;7.906;2023-06-22T09:44:05;12.95;;;10.90;;
20056;SDS011;10189;49.546;7.906;2023-06-22T09:46:31;12.50;;;11.20;;
20056;SDS011;10189;49.546;7.906;2023-06-22T09:48:57;11.13;;;9.93;;
20056;SDS011;10189;49.546;7.906;2023-06-22T09:51:23;11.95;;;10.55;;
20056;SDS011;10189;49.546;7.906;2023-06-22T09:53:49;12.27;;;10.98;;
20056;SDS011;10189;49.546;7.906;2023-06-22T09:56:16;12.02;;;10.50;;
20056;SDS011;10189;49.546;7.906;2023-06-22T09:58:42;13.88;;;10.90;;
20056;SDS011;10189;49.546;7.906;2023-06-22T10:01:10;12.63;;;10.20;;
20056;SDS011;10189;49.546;7.906;2023-06-22T10:03:36;14.55;;;10.55;;
20056;SDS011;10189;49.546;7.906;2023-06-22T10:06:02;11.48;;;10.27;;
20056;SDS011;10189;49.546;7.906;2023-06-22T10:08:29;11.35;;;10.15;;
20056;SDS011;10189;49.546;7.906;2023-06-22T10:10:55;12.40;;;10.85;;
20056;SDS011;10189;49.546;7.906;2023-06-22T10:13:21;14.23;;;10.50;;
20056;SDS011;10189;49.546;7.906;2023-06-22T10:15:47;12.38;;;10.48;;
20056;SDS011;10189;49.546;7.906;2023-06-22T10:18:16;10.77;;;9.52;;
20056;SDS011;10189;49.546;7.906;2023-06-22T10:20:43;13.88;;;9.77;;
20056;SDS011;10189;49.546;7.906;2023-06-22T10:23:13;13.32;;;10.00;;
20056;SDS011;10189;49.546;7.906;2023-06-22T10:25:39;10.85;;;9.80;;
20056;SDS011;10189;49.546;7.906;2023-06-22T10:28:04;13.15;;;11.00;;
20056;SDS011;10189;49.546;7.906;2023-06-22T10:30:30;15.02;;;10.88;;
20056;SDS011;10189;49.546;7.906;2023-06-22T10:32:56;13.40;;;10.93;;
20056;SDS011;10189;49.546;7.906;2023-06-22T10:35:22;12.95;;;10.90;;
20056;SDS011;10189;49.546;7.906;2023-06-22T10:37:48;15.70;;;10.75;;
20056;SDS011;10189;49.546;7.906;2023-06-22T10:40:14;11.48;;;10.30;;
20056;SDS011;10189;49.546;7.906;2023-06-22T10:42:42;12.85;;;10.02;;
20056;SDS011;10189;49.546;7.906;2023-06-22T10:45:08;13.10;;;9.32;;
20056;SDS011;10189;49.546;7.906;2023-06-22T10:47:34;11.23;;;10.00;;
20056;SDS011;10189;49.546;7.906;2023-06-22T10:50:01;12.75;;;10.27;;
20056;SDS011;10189;49.546;7.906;2023-06-22T10:52:28;11.20;;;9.93;;
20056;SDS011;10189;49.546;7.906;2023-06-22T10:54:54;12.13;;;10.85;;
20056;SDS011;10189;49.546;7.906;2023-06-22T10:57:21;14.93;;;10.57;;
20056;SDS011;10189;49.546;7.906;2023-06-22T10:59:47;12.35;;;9.88;;
20056;SDS011;10189;49.546;7.906;2023-06-22T11:02:13;10.52;;;9.48;;
20056;SDS011;10189;49.546;7.906;2023-06-22T11:04:39;11.93;;;9.00;;
20056;SDS011;10189;49.546;7.906;2023-06-22T11:07:05;12.05;;;9.80;;
20056;SDS011;10189;49.546;7.906;2023-06-22T11:09:31;14.13;;;9.98;;
20056;SDS011;10189;49.546;7.906;2023-06-22T11:11:57;10.20;;;9.10;;
20056;SDS011;10189;49.546;7.906;2023-06-22T11:14:24;12.05;;;8.63;;
20056;SDS011;10189;49.546;7.906;2023-06-22T11:16:50;12.05;;;9.65;;
20056;SDS011;10189;49.546;7.906;2023-06-22T11:19:17;12.15;;;8.80;;
20056;SDS011;10189;49.546;7.906;2023-06-22T11:21:44;15.15;;;9.13;;
20056;SDS011;10189;49.546;7.906;2023-06-22T11:24:09;10.10;;;8.35;;
20056;SDS011;10189;49.546;7.906;2023-06-22T11:26:35;11.10;;;8.50;;
20056;SDS011;10189;49.546;7.906;2023-06-22T11:29:02;11.38;;;7.95;;
20056;SDS011;10189;49.546;7.906;2023-06-22T11:31:31;10.00;;;8.25;;
20056;SDS011;10189;49.546;7.906;2023-06-22T11:33:57;10.18;;;7.82;;
20056;SDS011;10189;49.546;7.906;2023-06-22T11:36:23;12.35;;;8.27;;
20056;SDS011;10189;49.546;7.906;2023-06-22T11:38:50;9.63;;;8.10;;
20056;SDS011;10189;49.546;7.906;2023-06-22T11:41:16;14.07;;;8.13;;
20056;SDS011;10189;49.546;7.906;2023-06-22T11:43:42;8.38;;;7.38;;
20056;SDS011;10189;49.546;7.906;2023-06-22T11:46:09;8.18;;;7.38;;
20056;SDS011;10189;49.546;7.906;2023-06-22T11:48:35;14.07;;;7.55;;
20056;SDS011;10189;49.546;7.906;2023-06-22T11:51:01;11.18;;;7.60;;
20056;SDS011;10189;49.546;7.906;2023-06-22T11:53:28;10.38;;;7.78;;
20056;SDS011;10189;49.546;7.906;2023-06-22T11:55:55;9.80;;;7.43;;
20056;SDS011;10189;49.546;7.906;2023-06-22T11:58:21;9.60;;;7.68;;
20056;SDS011;10189;49.546;7.906;2023-06-22T12:00:48;8.93;;;7.38;;
20056;SDS011;10189;49.546;7.906;2023-06-22T12:03:15;9.90;;;7.60;;
20056;SDS011;10189;49.546;7.906;2023-06-22T12:05:41;11.88;;;7.40;;
20056;SDS011;10189;49.546;7.906;2023-06-22T12:08:07;10.45;;;6.82;;
20056;SDS011;10189;49.546;7.906;2023-06-22T12:10:33;12.50;;;7.88;;
20056;SDS011;10189;49.546;7.906;2023-06-22T12:12:59;10.82;;;7.72;;
20056;SDS011;10189;49.546;7.906;2023-06-22T12:15:25;11.35;;;7.63;;
20056;SDS011;10189;49.546;7.906;2023-06-22T12:17:52;10.40;;;7.82;;
20056;SDS011;10189;49.546;7.906;2023-06-22T12:20:18;9.63;;;7.22;;
20056;SDS011;10189;49.546;7.906;2023-06-22T12:22:44;14.00;;;6.93;;
20056;SDS011;10189;49.546;7.906;2023-06-22T12:25:10;12.23;;;7.10;;
20056;SDS011;10189;49.546;7.906;2023-06-22T12:27:38;13.00;;;7.82;;
20056;SDS011;10189;49.546;7.906;2023-06-22T12:30:04;12.90;;;7.82;;
20056;SDS011;10189;49.546;7.906;2023-06-22T12:32:30;13.77;;;7.68;;
20056;SDS011;10189;49.546;7.906;2023-06-22T12:34:56;10.95;;;7.30;;
20056;SDS011;10189;49.546;7.906;2023-06-22T12:37:23;11.30;;;7.47;;
20056;SDS011;10189;49.546;7.906;2023-06-22T12:39:49;11.35;;;7.75;;
20056;SDS011;10189;49.546;7.906;2023-06-22T12:42:15;11.15;;;7.18;;
20056;SDS011;10189;49.546;7.906;2023-06-22T12:44:41;13.77;;;8.13;;
20056;SDS011;10189;49.546;7.906;2023-06-22T12:47:08;10.70;;;7.15;;
20056;SDS011;10189;49.546;7.906;2023-06-22T12:49:35;11.90;;;7.55;;
20056;SDS011;10189;49.546;7.906;2023-06-22T12:52:01;14.48;;;8.40;;
20056;SDS011;10189;49.546;7.906;2023-06-22T12:54:28;11.30;;;7.15;;
20056;SDS011;10189;49.546;7.906;2023-06-22T12:56:57;14.25;;;6.50;;
20056;SDS011;10189;49.546;7.906;2023-06-22T12:59:23;12.63;;;6.25;;
20056;SDS011;10189;49.546;7.906;2023-06-22T13:01:48;11.95;;;6.45;;
20056;SDS011;10189;49.546;7.906;2023-06-22T13:04:14;14.25;;;6.53;;
20056;SDS011;10189;49.546;7.906;2023-06-22T13:06:44;13.98;;;6.90;;
20056;SDS011;10189;49.546;7.906;2023-06-22T13:09:14;12.52;;;6.30;;
20056;SDS011;10189;49.546;7.906;2023-06-22T13:11:41;11.63;;;6.63;;
20056;SDS011;10189;49.546;7.906;2023-06-22T13:14:08;16.10;;;6.68;;
20056;SDS011;10189;49.546;7.906;2023-06-22T13:16:34;15.07;;;6.57;;
20056;SDS011;10189;49.546;7.906;2023-06-22T13:19:00;16.02;;;7.07;;
20056;SDS011;10189;49.546;7.906;2023-06-22T13:21:26;17.60;;;6.53;;
20056;SDS011;10189;49.546;7.906;2023-06-22T13:23:51;13.27;;;6.07;;
20056;SDS011;10189;49.546;7.906;2023-06-22T13:26:17;16.50;;;6.32;;
20056;SDS011;10189;49.546;7.906;2023-06-22T13:28:43;18.17;;;6.55;;
20056;SDS011;10189;49.546;7.906;2023-06-22T13:31:09;14.73;;;6.32;;
20056;SDS011;10189;49.546;7.906;2023-06-22T13:33:35;19.27;;;6.35;;
20056;SDS011;10189;49.546;7.906;2023-06-22T13:36:03;18.92;;;6.30;;
20056;SDS011;10189;49.546;7.906;2023-06-22T13:38:31;16.38;;;6.50;;
20056;SDS011;10189;49.546;7.906;2023-06-22T13:40:57;20.20;;;6.32;;
20056;SDS011;10189;49.546;7.906;2023-06-22T13:43:24;15.65;;;6.15;;
20056;SDS011;10189;49.546;7.906;2023-06-22T13:45:52;17.73;;;6.50;;
20056;SDS011;10189;49.546;7.906;2023-06-22T13:48:18;12.70;;;6.20;;
20056;SDS011;10189;49.546;7.906;2023-06-22T13:50:44;12.60;;;6.05;;
20056;SDS011;10189;49.546;7.906;2023-06-22T13:53:10;18.83;;;6.57;;
20056;SDS011;10189;49.546;7.906;2023-06-22T13:55:35;14.00;;;6.40;;
20056;SDS011;10189;49.546;7.906;2023-06-22T13:58:01;20.50;;;6.88;;
20056;SDS011;10189;49.546;7.906;2023-06-22T14:00:27;14.98;;;6.72;;
20056;SDS011;10189;49.546;7.906;2023-06-22T14:02:53;13.05;;;7.07;;
20056;SDS011;10189;49.546;7.906;2023-06-22T14:05:19;15.75;;;6.47;;
20056;SDS011;10189;49.546;7.906;2023-06-22T14:07:45;18.63;;;6.82;;
20056;SDS011;10189;49.546;7.906;2023-06-22T14:10:11;18.65;;;6.93;;
20056;SDS011;10189;49.546;7.906;2023-06-22T14:12:37;13.60;;;6.32;;
20056;SDS011;10189;49.546;7.906;2023-06-22T14:15:03;19.33;;;6.90;;
20056;SDS011;10189;49.546;7.906;2023-06-22T14:17:30;15.80;;;6.60;;
20056;SDS011;10189;49.546;7.906;2023-06-22T14:19:56;15.98;;;6.97;;
20056;SDS011;10189;49.546;7.906;2023-06-22T14:22:22;13.15;;;6.40;;
20056;SDS011;10189;49.546;7.906;2023-06-22T14:24:48;19.27;;;6.95;;
20056;SDS011;10189;49.546;7.906;2023-06-22T14:27:14;20.73;;;6.65;;
20056;SDS011;10189;49.546;7.906;2023-06-22T14:29:41;13.15;;;6.57;;
20056;SDS011;10189;49.546;7.906;2023-06-22T14:32:07;12.82;;;7.22;;
20056;SDS011;10189;49.546;7.906;2023-06-22T14:34:34;12.48;;;6.90;;
20056;SDS011;10189;49.546;7.906;2023-06-22T14:37:04;15.32;;;6.72;;
20056;SDS011;10189;49.546;7.906;2023-06-22T14:42:01;15.43;;;7.30;;